Time;durP1;ratioP1;P1;durP2;ratioP2;P2;SDS_P1;SDS_P2;PMS_P1;PMS_P2;Temp;Humidity;BMP_temperature;BMP_pressure;BME280_temperature;BME280_humidity;BME280_pressure;Samples;Min_cycle;Max_cycle;Signal;HPM_P1;HPM_P2
2023/03/19 00:01:35;;;;;;;8.80;5.05;;;;;;;7.88;100.00;95548.00;5074059;28;20764;-77
2023/03/19 00:04:03;;;;;;;14.43;5.57;;;;;;;7.98;100.00;95551.75;5073916;28;24419;-76
2023/03/19 00:06:31;;;;;;;8.65;5.80;;;;;;;8.05;100.00;95549.66;5073962;28;20848;-76
2023/03/19 00:08:57;;;;;;;9.73;5.32;;;;;;;8.06;100.00;95549.56;5073774;28;24418;-76
2023/03/19 00:11:24;;;;;;;7.35;4.82;;;;;;;8.10;100.00;95552.81;5073596;28;21207;-76
2023/03/19 00:13:51;;;;;;;8.50;4.32;;;;;;;8.10;100.00;95542.47;5073775;28;20784;-76
2023/03/19 00:16:17;;;;;;;6.80;4.15;;;;;;;8.09;100.00;95551.16;5073297;28;24430;-76
2023/03/19 00:18:44;;;;;;;8.77;4.30;;;;;;;8.08;100.00;95552.03;5073582;28;24429;-76
2023/03/19 00:21:10;;;;;;;8.63;4.30;;;;;;;8.12;100.00;95553.53;5073428;28;24425;-77
2023/03/19 00:23:38;;;;;;;5.38;3.83;;;;;;;8.14;100.00;95560.28;5073383;28;20764;-76
2023/03/19 00:26:05;;;;;;;7.68;3.90;;;;;;;8.20;100.00;95546.22;5073115;28;24936;-75
2023/03/19 00:28:32;;;;;;;6.78;4.00;;;;;;;8.24;100.00;95547.69;5073323;28;21349;-76
2023/03/19 00:31:07;;;;;;;7.90;4.03;;;;;;;8.25;100.00;95557.91;5074154;28;24809;-77
2023/03/19 00:33:33;;;;;;;6.32;4.30;;;;;;;8.24;100.00;95558.00;5073316;28;20652;-76
2023/03/19 00:36:00;;;;;;;5.80;3.00;;;;;;;8.11;100.00;95554.44;5073178;28;24421;-76
2023/03/19 00:38:27;;;;;;;4.63;2.90;;;;;;;8.00;100.00;95549.91;5072923;28;24415;-76
2023/03/19 00:40:54;;;;;;;5.20;3.03;;;;;;;8.06;100.00;95559.06;5072820;28;24957;-76
2023/03/19 00:43:21;;;;;;;8.63;3.08;;;;;;;8.17;100.00;95569.59;5073189;28;20803;-76
2023/03/19 00:45:47;;;;;;;5.40;3.42;;;;;;;8.01;100.00;95587.69;5073195;28;20785;-76
2023/03/19 00:48:14;;;;;;;7.55;3.45;;;;;;;7.90;100.00;95597.75;5072957;28;24419;-76
2023/03/19 00:50:40;;;;;;;7.85;3.72;;;;;;;7.85;100.00;95597.16;5072890;28;24430;-76
2023/03/19 00:53:07;;;;;;;6.30;3.65;;;;;;;7.72;100.00;95604.75;5072533;28;24465;-76
2023/03/19 00:55:33;;;;;;;7.32;2.63;;;;;;;7.68;100.00;95595.53;5072764;28;24430;-76
2023/03/19 00:58:01;;;;;;;4.57;3.25;;;;;;;7.71;100.00;95611.66;5072819;28;24450;-76
2023/03/19 01:00:27;;;;;;;5.38;3.20;;;;;;;7.50;100.00;95621.34;5072866;28;20764;-76
2023/03/19 01:02:54;;;;;;;4.20;2.70;;;;;;;7.33;100.00;95636.03;5072812;28;24415;-76
2023/03/19 01:05:21;;;;;;;3.42;2.45;;;;;;;7.28;100.00;95644.84;5072373;28;24974;-76
2023/03/19 01:07:47;;;;;;;8.10;3.30;;;;;;;7.29;100.00;95635.34;5072605;28;20758;-75
2023/03/19 01:10:14;;;;;;;6.40;3.03;;;;;;;7.31;100.00;95630.97;5072597;28;24442;-75
2023/03/19 01:12:40;;;;;;;4.97;2.63;;;;;;;7.45;100.00;95641.38;5072184;28;24972;-75
2023/03/19 01:15:09;;;;;;;3.22;2.10;;;;;;;7.59;100.00;95639.81;5072554;28;24510;-75
2023/03/19 01:17:36;;;;;;;4.30;2.60;;;;;;;7.53;100.00;95628.09;5072516;28;20825;-75
2023/03/19 01:20:03;;;;;;;7.15;2.90;;;;;;;8.10;100.00;95612.94;5072269;28;24463;-75
2023/03/19 01:22:30;;;;;;;8.10;3.42;;;;;;;8.13;100.00;95597.31;5072166;28;21302;-75
2023/03/19 01:24:56;;;;;;;6.10;2.80;;;;;;;8.21;100.00;95608.03;5072434;28;21096;-75
2023/03/19 01:27:22;;;;;;;7.53;3.08;;;;;;;8.15;100.00;95604.94;5072409;28;20757;-75
2023/03/19 01:29:50;;;;;;;7.45;2.72;;;;;;;7.92;100.00;95601.91;5072325;28;20765;-75
2023/03/19 01:32:18;;;;;;;5.90;2.92;;;;;;;7.74;100.00;95614.03;5072065;28;24431;-76
2023/03/19 01:34:45;;;;;;;5.53;2.70;;;;;;;7.65;100.00;95617.13;5071819;28;25033;-75
2023/03/19 01:37:12;;;;;;;6.53;2.95;;;;;;;7.66;100.00;95618.78;5072199;28;20811;-75
2023/03/19 01:39:39;;;;;;;3.85;2.67;;;;;;;7.75;100.00;95617.47;5071970;28;20761;-76
2023/03/19 01:42:06;;;;;;;6.13;3.38;;;;;;;7.60;100.00;95613.13;5071808;28;24875;-75
2023/03/19 01:44:34;;;;;;;5.72;3.30;;;;;;;7.54;100.00;95616.88;5072155;28;20801;-77
2023/03/19 01:47:04;;;;;;;4.38;2.80;;;;;;;7.57;100.00;95621.03;5072074;28;20847;-75
2023/03/19 01:49:34;;;;;;;6.03;3.10;;;;;;;7.40;100.00;95622.75;5071971;28;20798;-76
2023/03/19 01:52:04;;;;;;;6.07;3.45;;;;;;;7.42;100.00;95614.94;5072006;28;20752;-75
2023/03/19 01:54:32;;;;;;;4.72;3.22;;;;;;;7.48;100.00;95623.16;5072210;28;20768;-75
2023/03/19 01:57:02;;;;;;;7.80;3.37;;;;;;;7.49;100.00;95632.59;5072028;28;20884;-75
2023/03/19 01:59:31;;;;;;;5.90;2.95;;;;;;;7.36;100.00;95636.69;5072039;28;20801;-76
2023/03/19 02:02:02;;;;;;;5.20;3.05;;;;;;;7.40;100.00;95633.06;5071870;28;20802;-75
2023/03/19 02:04:31;;;;;;;3.92;3.28;;;;;;;7.50;100.00;95623.94;5071999;28;20699;-77
2023/03/19 02:07:02;;;;;;;4.72;3.47;;;;;;;7.59;100.00;95624.34;5071917;28;20737;-74
2023/03/19 02:09:30;;;;;;;6.70;3.47;;;;;;;7.58;100.00;95628.69;5071685;28;20798;-74
2023/03/19 02:11:57;;;;;;;3.28;2.72;;;;;;;7.61;100.00;95620.78;5071854;28;20795;-75
2023/03/19 02:14:24;;;;;;;5.38;3.25;;;;;;;7.57;100.00;95626.19;5071783;28;20815;-75
2023/03/19 02:16:51;;;;;;;5.63;2.80;;;;;;;7.57;100.00;95623.63;5071571;28;24419;-76
2023/03/19 02:19:22;;;;;;;4.80;3.15;;;;;;;7.61;100.00;95628.53;5071136;28;20772;-75
2023/03/19 02:21:48;;;;;;;5.78;3.13;;;;;;;7.54;100.00;95629.75;5071656;28;20690;-75
2023/03/19 02:24:22;;;;;;;6.57;3.20;;;;;;;7.37;100.00;95634.94;5071662;28;20750;-75
2023/03/19 02:26:50;;;;;;;6.63;3.00;;;;;;;7.21;100.00;95632.34;5071668;28;20608;-75
2023/03/19 02:29:17;;;;;;;5.65;2.90;;;;;;;7.24;100.00;95630.44;5071571;28;20805;-75
2023/03/19 02:31:43;;;;;;;4.82;2.72;;;;;;;7.36;100.00;95626.41;5071542;28;20773;-75
2023/03/19 02:34:33;;;;;;;4.55;2.80;;;;;;;7.68;100.00;95616.97;5071325;28;24446;-75
2023/03/19 02:37:03;;;;;;;4.07;2.90;;;;;;;7.46;100.00;95614.69;5071492;28;20702;-75
2023/03/19 02:39:34;;;;;;;7.45;2.88;;;;;;;7.21;100.00;95612.56;5071451;28;20703;-75
2023/03/19 02:42:03;;;;;;;4.82;3.05;;;;;;;7.08;100.00;95605.56;5071484;28;20789;-75
2023/03/19 02:44:29;;;;;;;5.47;2.63;;;;;;;7.07;100.00;95609.88;5071441;28;20741;-75
2023/03/19 02:46:56;;;;;;;4.60;2.40;;;;;;;7.09;100.00;95604.66;5071094;28;20844;-75
2023/03/19 02:49:23;;;;;;;5.63;3.30;;;;;;;7.02;100.00;95612.69;5071185;28;24438;-75
2023/03/19 02:51:50;;;;;;;5.95;2.70;;;;;;;7.03;100.00;95621.25;5071266;28;24423;-75
2023/03/19 02:54:17;;;;;;;3.95;2.60;;;;;;;7.04;100.00;95612.59;5070874;28;21348;-75
2023/03/19 02:56:43;;;;;;;3.63;2.75;;;;;;;6.99;100.00;95615.41;5071110;28;24417;-75
2023/03/19 02:59:11;;;;;;;4.47;2.60;;;;;;;7.01;100.00;95618.75;5071301;28;24423;-75
2023/03/19 03:01:37;;;;;;;6.05;2.70;;;;;;;7.10;100.00;95608.91;5071234;28;20795;-75
2023/03/19 03:04:04;;;;;;;4.25;2.90;;;;;;;7.18;100.00;95614.47;5071154;28;24418;-75
2023/03/19 03:06:31;;;;;;;4.85;2.78;;;;;;;7.27;100.00;95625.16;5070940;28;21283;-75
2023/03/19 03:08:58;;;;;;;4.25;2.90;;;;;;;7.18;100.00;95632.50;5071238;28;20758;-75
2023/03/19 03:11:24;;;;;;;6.13;3.03;;;;;;;7.05;100.00;95628.91;5071732;28;20854;-75
2023/03/19 03:13:51;;;;;;;4.67;3.03;;;;;;;6.93;100.00;95627.75;5070733;28;24473;-75
2023/03/19 03:16:18;;;;;;;4.47;2.72;;;;;;;6.86;100.00;95623.84;5070964;28;21309;-76
2023/03/19 03:18:45;;;;;;;5.88;2.85;;;;;;;6.71;100.00;95628.88;5071174;28;20798;-75
2023/03/19 03:21:11;;;;;;;5.60;2.97;;;;;;;6.74;100.00;95623.53;5070993;28;24434;-75
2023/03/19 03:23:38;;;;;;;4.57;2.70;;;;;;;6.87;100.00;95626.34;5070997;28;24426;-76
2023/03/19 03:26:05;;;;;;;4.90;2.63;;;;;;;6.97;100.00;95635.28;5071544;28;21143;-76
2023/03/19 03:28:32;;;;;;;2.78;2.30;;;;;;;7.06;100.00;95628.81;5070953;28;24429;-76
2023/03/19 03:30:59;;;;;;;4.72;2.40;;;;;;;7.02;100.00;95635.88;5072859;28;20768;-75
2023/03/19 03:33:27;;;;;;;3.87;2.87;;;;;;;6.94;100.00;95635.44;5074548;28;20896;-76
2023/03/19 03:35:54;;;;;;;5.30;2.83;;;;;;;6.98;100.00;95642.09;5074352;28;24446;-76
2023/03/19 03:38:22;;;;;;;4.30;2.50;;;;;;;7.00;100.00;95642.81;5074395;28;24438;-76
2023/03/19 03:40:51;;;;;;;5.13;2.27;;;;;;;6.95;100.00;95638.84;5075279;28;20939;-75
2023/03/19 03:43:18;;;;;;;5.57;2.67;;;;;;;7.11;100.00;95637.13;5074456;28;20776;-75
2023/03/19 03:45:44;;;;;;;2.70;2.08;;;;;;;7.15;100.00;95643.78;5074358;28;20815;-75
2023/03/19 03:48:11;;;;;;;3.55;2.25;;;;;;;7.01;100.00;95643.69;5074195;28;24427;-75
2023/03/19 03:50:39;;;;;;;10.50;2.67;;;;;;;7.05;100.00;95647.75;5074507;28;20770;-75
2023/03/19 03:53:05;;;;;;;3.60;2.40;;;;;;;7.10;100.00;95648.34;5074018;28;20886;-76
2023/03/19 03:55:32;;;;;;;6.67;2.60;;;;;;;6.88;100.00;95646.03;5074259;28;20758;-76
2023/03/19 03:57:59;;;;;;;4.63;2.30;;;;;;;7.00;100.00;95647.97;5074153;28;20770;-73
2023/03/19 04:00:25;;;;;;;7.80;2.60;;;;;;;6.91;100.00;95652.78;5073857;28;24423;-76
2023/03/19 04:02:52;;;;;;;3.65;2.30;;;;;;;7.05;100.00;95659.81;5073837;28;20761;-76
2023/03/19 04:05:19;;;;;;;3.72;2.25;;;;;;;6.88;100.00;95652.91;5074091;28;21099;-76
2023/03/19 04:07:46;;;;;;;3.63;2.45;;;;;;;6.89;100.00;95660.56;5073870;28;20761;-76
2023/03/19 04:10:14;;;;;;;3.17;2.33;;;;;;;6.94;100.00;95657.78;5073818;28;20805;-76
2023/03/19 04:12:41;;;;;;;3.90;2.65;;;;;;;6.84;100.00;95659.97;5073473;28;24419;-76
2023/03/19 04:15:09;;;;;;;3.90;2.55;;;;;;;6.86;100.00;95658.16;5073724;28;20800;-76
2023/03/19 04:17:36;;;;;;;4.18;2.80;;;;;;;6.98;100.00;95661.84;5073561;28;24430;-76
2023/03/19 04:20:04;;;;;;;4.85;2.47;;;;;;;7.04;100.00;95666.69;5073549;28;20785;-76
2023/03/19 04:22:32;;;;;;;9.07;2.88;;;;;;;6.92;100.00;95664.72;5073673;28;21153;-77
2023/03/19 04:25:00;;;;;;;4.03;2.90;;;;;;;6.91;100.00;95661.31;5073567;28;20790;-76
2023/03/19 04:27:26;;;;;;;3.22;2.40;;;;;;;6.97;100.00;95670.47;5073515;28;20758;-76
2023/03/19 04:29:53;;;;;;;3.92;2.78;;;;;;;6.94;100.00;95668.06;5073469;28;20757;-76
2023/03/19 04:32:20;;;;;;;3.33;2.55;;;;;;;6.98;100.00;95662.69;5073394;28;24431;-76
2023/03/19 04:34:47;;;;;;;4.35;2.83;;;;;;;7.09;100.00;95663.91;5073463;28;20780;-76
2023/03/19 04:37:13;;;;;;;4.75;2.35;;;;;;;7.09;100.00;95656.16;5073510;28;20761;-76
2023/03/19 04:39:40;;;;;;;2.35;2.00;;;;;;;7.26;100.00;95663.84;5072873;28;24422;-76
2023/03/19 04:42:08;;;;;;;4.00;2.22;;;;;;;7.09;100.00;95667.28;5072772;28;24426;-76
2023/03/19 04:44:36;;;;;;;2.85;1.95;;;;;;;6.98;100.00;95667.84;5073209;28;24500;-76
2023/03/19 04:47:03;;;;;;;3.38;2.25;;;;;;;7.02;100.00;95668.50;5073346;28;20757;-76
2023/03/19 04:49:30;;;;;;;3.83;2.40;;;;;;;7.01;100.00;95672.00;5073148;28;20761;-76
2023/03/19 04:51:56;;;;;;;7.18;4.15;;;;;;;6.98;100.00;95672.16;5072941;28;20775;-76
2023/03/19 04:54:24;;;;;;;8.38;3.80;;;;;;;6.75;100.00;95674.13;5072388;28;24451;-76
2023/03/19 04:56:51;;;;;;;6.63;3.10;;;;;;;6.69;100.00;95671.03;5072943;28;20941;-76
2023/03/19 04:59:19;;;;;;;4.47;3.03;;;;;;;6.77;100.00;95676.63;5072814;28;20769;-76
2023/03/19 05:01:46;;;;;;;5.40;2.83;;;;;;;6.85;100.00;95679.63;5072841;28;20790;-76
2023/03/19 05:04:12;;;;;;;4.25;2.30;;;;;;;6.96;100.00;95684.25;5072713;28;24414;-77
2023/03/19 05:06:40;;;;;;;4.10;3.15;;;;;;;6.97;100.00;95681.63;5072258;28;24518;-76
2023/03/19 05:09:08;;;;;;;5.97;2.90;;;;;;;7.06;100.00;95687.22;5072668;28;20818;-76
2023/03/19 05:11:35;;;;;;;8.38;3.28;;;;;;;7.03;100.00;95685.63;5072288;28;20801;-76
2023/03/19 05:14:01;;;;;;;5.97;4.20;;;;;;;6.85;100.00;95684.78;5072551;28;20778;-77
2023/03/19 05:16:29;;;;;;;6.88;4.90;;;;;;;6.65;100.00;95679.81;5072089;28;24475;-77
2023/03/19 05:18:56;;;;;;;7.10;3.72;;;;;;;6.55;100.00;95684.53;5072472;28;21157;-76
2023/03/19 05:21:22;;;;;;;3.75;2.78;;;;;;;6.46;100.00;95685.84;5072979;28;20765;-76
2023/03/19 05:23:51;;;;;;;5.00;3.10;;;;;;;6.46;100.00;95688.41;5072408;28;20766;-76
2023/03/19 05:26:17;;;;;;;6.25;2.95;;;;;;;6.44;100.00;95690.19;5073128;28;20891;-76
2023/03/19 05:28:44;;;;;;;5.43;3.05;;;;;;;6.52;100.00;95692.41;5072169;28;21351;-76
2023/03/19 05:31:10;;;;;;;6.47;2.90;;;;;;;6.61;100.00;95694.56;5072285;28;24431;-77
2023/03/19 05:33:38;;;;;;;4.88;2.83;;;;;;;6.69;100.00;95694.19;5072285;28;20781;-77
2023/03/19 05:36:06;;;;;;;4.85;3.10;;;;;;;6.76;100.00;95688.66;5072080;28;24427;-76
2023/03/19 05:38:33;;;;;;;6.28;3.03;;;;;;;6.75;100.00;95691.31;5072358;28;20765;-76
2023/03/19 05:41:03;;;;;;;5.38;2.70;;;;;;;6.68;100.00;95695.09;5072103;28;24430;-76
2023/03/19 05:43:30;;;;;;;3.67;2.58;;;;;;;6.66;100.00;95692.59;5072188;28;20661;-74
2023/03/19 05:45:57;;;;;;;5.50;2.50;;;;;;;6.60;100.00;95697.19;5071789;28;20765;-75
2023/03/19 05:48:24;;;;;;;3.85;2.53;;;;;;;6.65;100.00;95697.81;5072160;28;21168;-75
2023/03/19 05:50:52;;;;;;;7.47;2.87;;;;;;;6.70;100.00;95701.00;5069875;28;20780;-76
2023/03/19 05:53:19;;;;;;;5.43;2.75;;;;;;;6.71;100.00;95705.22;5068600;28;20819;-76
2023/03/19 05:55:45;;;;;;;5.50;3.80;;;;;;;6.77;100.00;95704.94;5067958;28;20785;-76
2023/03/19 05:58:12;;;;;;;6.25;3.22;;;;;;;6.71;100.00;95710.38;5069269;28;24453;-76
2023/03/19 06:00:38;;;;;;;6.40;3.05;;;;;;;6.69;100.00;95717.34;5073957;28;24443;-76
2023/03/19 06:03:05;;;;;;;6.88;2.90;;;;;;;6.70;100.00;95719.84;5069017;28;24793;-76
2023/03/19 06:05:31;;;;;;;5.50;2.92;;;;;;;6.79;100.00;95714.25;5068943;28;24516;-76
2023/03/19 06:07:59;;;;;;;4.95;3.35;;;;;;;6.75;100.00;95709.34;5065237;28;24438;-76
2023/03/19 06:10:26;;;;;;;6.45;3.25;;;;;;;6.69;100.00;95714.78;5066592;28;20881;-76
2023/03/19 06:12:53;;;;;;;5.05;2.70;;;;;;;6.68;100.00;95718.25;5069326;28;20808;-76
2023/03/19 06:15:19;;;;;;;3.92;2.50;;;;;;;6.75;100.00;95709.34;5066962;28;24991;-76
2023/03/19 06:17:47;;;;;;;4.18;2.85;;;;;;;6.85;100.00;95714.84;5069186;28;24497;-76
2023/03/19 06:20:14;;;;;;;8.05;4.68;;;;;;;6.90;100.00;95711.16;5066414;28;21236;-76
2023/03/19 06:22:40;;;;;;;31.77;23.67;;;;;;;6.85;100.00;95713.09;5066475;28;24442;-76
2023/03/19 06:25:08;;;;;;;5.88;3.90;;;;;;;6.80;100.00;95709.94;5064076;28;24439;-76
2023/03/19 06:27:35;;;;;;;4.75;3.00;;;;;;;6.93;100.00;95715.31;5068006;28;20769;-76
2023/03/19 06:30:01;;;;;;;3.75;2.83;;;;;;;6.93;100.00;95710.97;5071886;28;20785;-76
2023/03/19 06:32:28;;;;;;;4.47;3.10;;;;;;;6.85;100.00;95713.09;5068741;28;24438;-76
2023/03/19 06:34:55;;;;;;;4.22;2.70;;;;;;;6.85;100.00;95707.13;5068747;28;25019;-76
2023/03/19 06:37:22;;;;;;;4.75;2.65;;;;;;;6.97;100.00;95711.66;5069243;28;20777;-76
2023/03/19 06:39:49;;;;;;;4.18;3.78;;;;;;;7.13;100.00;95714.34;5068281;28;24995;-77
2023/03/19 06:42:17;;;;;;;20.70;15.45;;;;;;;7.18;100.00;95714.91;5070172;28;20818;-76
2023/03/19 06:44:44;;;;;;;7.10;3.88;;;;;;;7.19;100.00;95711.44;5068993;28;20810;-76
2023/03/19 06:47:11;;;;;;;3.97;2.88;;;;;;;7.24;100.00;95724.94;5071723;28;24821;-76
2023/03/19 06:49:37;;;;;;;4.95;2.70;;;;;;;7.33;100.00;95719.28;5068683;28;20777;-76
2023/03/19 06:52:04;;;;;;;7.03;5.50;;;;;;;7.38;100.00;95721.63;5066709;28;24442;-76
2023/03/19 06:54:31;;;;;;;4.15;3.10;;;;;;;7.34;100.00;95723.56;5070717;28;20781;-74
2023/03/19 06:56:58;;;;;;;5.20;2.38;;;;;;;7.25;100.00;95724.84;5068864;28;20781;-77
2023/03/19 06:59:26;;;;;;;5.40;2.55;;;;;;;7.13;100.00;95719.47;5067715;28;24469;-76
2023/03/19 07:01:53;;;;;;;6.95;2.95;;;;;;;7.00;100.00;95724.38;5067909;28;20810;-76
2023/03/19 07:04:20;;;;;;;3.78;2.55;;;;;;;7.07;100.00;95728.34;5063358;28;24440;-77
2023/03/19 07:06:46;;;;;;;3.80;2.92;;;;;;;7.21;100.00;95727.66;5072100;28;24457;-76
2023/03/19 07:09:13;;;;;;;4.97;3.10;;;;;;;7.34;100.00;95728.72;5076974;28;24437;-77
2023/03/19 07:11:40;;;;;;;16.53;11.33;;;;;;;7.44;100.00;95729.06;5074408;28;20756;-77
2023/03/19 07:14:06;;;;;;;9.07;5.65;;;;;;;7.51;100.00;95728.66;5073315;28;21357;-78
2023/03/19 07:16:34;;;;;;;4.75;3.25;;;;;;;7.47;100.00;95731.47;5074000;28;20773;-78
2023/03/19 07:19:01;;;;;;;4.22;2.75;;;;;;;7.44;100.00;95735.03;5073520;28;20819;-74
2023/03/19 07:21:27;;;;;;;8.45;3.13;;;;;;;7.55;100.00;95738.81;5072145;28;24442;-76
2023/03/19 07:23:54;;;;;;;6.10;3.47;;;;;;;7.56;100.00;95737.91;5072356;28;24785;-75
2023/03/19 07:26:20;;;;;;;4.95;3.15;;;;;;;7.60;100.00;95740.28;5070445;28;24518;-74
2023/03/19 07:28:47;;;;;;;3.20;2.80;;;;;;;7.62;100.00;95748.72;5071839;28;24427;-75
2023/03/19 07:31:15;;;;;;;5.50;2.97;;;;;;;7.61;100.00;95744.50;5071631;28;24435;-74
2023/03/19 07:33:43;;;;;;;4.80;2.65;;;;;;;7.70;100.00;95745.75;5069480;28;21183;-75
2023/03/19 07:36:10;;;;;;;5.70;2.70;;;;;;;7.81;100.00;95746.03;5063851;28;24450;-74
2023/03/19 07:38:36;;;;;;;8.43;4.10;;;;;;;7.87;100.00;95739.75;5071890;28;25077;-74
2023/03/19 07:41:03;;;;;;;29.73;16.67;;;;;;;8.01;100.00;95742.44;5070892;28;24801;-75
2023/03/19 07:43:30;;;;;;;83.77;43.77;;;;;;;8.05;100.00;95740.53;5068301;28;24625;-75
2023/03/19 07:45:57;;;;;;;10.35;5.90;;;;;;;8.10;100.00;95739.34;5070696;28;24583;-75
2023/03/19 07:48:23;;;;;;;11.18;3.40;;;;;;;8.08;100.00;95743.75;5071701;28;24434;-78
2023/03/19 07:50:51;;;;;;;8.93;2.65;;;;;;;8.06;100.00;95745.59;5069091;28;24445;-75
2023/03/19 07:53:18;;;;;;;6.30;3.00;;;;;;;8.08;100.00;95743.75;5071842;28;25010;-74
2023/03/19 07:55:44;;;;;;;8.13;3.33;;;;;;;8.04;100.00;95744.81;5071212;28;24454;-74
2023/03/19 07:58:11;;;;;;;4.95;2.78;;;;;;;8.02;100.00;95745.84;5072224;28;24797;-76
2023/03/19 08:00:37;;;;;;;3.60;2.67;;;;;;;8.07;100.00;95751.56;5075157;28;24442;-77
2023/03/19 08:03:04;;;;;;;6.40;2.85;;;;;;;8.12;100.00;95747.84;5072133;28;24441;-74
2023/03/19 08:05:30;;;;;;;6.30;3.08;;;;;;;8.23;100.00;95753.25;5072512;28;24827;-75
2023/03/19 08:07:58;;;;;;;8.20;3.10;;;;;;;8.36;100.00;95750.84;5071054;28;24437;-76
2023/03/19 08:10:25;;;;;;;4.85;3.05;;;;;;;8.45;100.00;95746.94;5072160;28;25011;-76
2023/03/19 08:12:51;;;;;;;6.07;3.15;;;;;;;8.70;100.00;95747.25;5078710;28;24841;-74
2023/03/19 08:15:18;;;;;;;3.08;2.53;;;;;;;8.94;100.00;95747.66;5071118;28;24809;-74
2023/03/19 08:17:44;;;;;;;4.10;2.53;;;;;;;9.10;100.00;95741.59;5068933;28;24441;-75
2023/03/19 08:20:13;;;;;;;4.53;2.83;;;;;;;9.15;100.00;95742.16;5070744;28;24445;-75
2023/03/19 08:22:40;;;;;;;4.40;2.50;;;;;;;9.13;100.00;95744.03;5069525;28;24814;-74
2023/03/19 08:25:10;;;;;;;5.68;2.50;;;;;;;9.19;100.00;95741.06;5064890;28;24434;-75
2023/03/19 08:27:36;;;;;;;5.82;2.45;;;;;;;9.26;100.00;95742.38;5061924;28;24439;-73
2023/03/19 08:30:06;;;;;;;6.60;2.30;;;;;;;9.34;100.00;95741.94;5072672;28;24445;-73
2023/03/19 08:32:32;;;;;;;4.75;2.60;;;;;;;9.37;100.00;95731.41;5070610;28;25151;-73
2023/03/19 08:34:59;;;;;;;3.67;2.38;;;;;;;9.53;100.00;95741.69;5070693;28;25035;-73
2023/03/19 08:37:25;;;;;;;5.50;2.55;;;;;;;9.56;100.00;95746.66;5070666;28;24809;-73
2023/03/19 08:39:52;;;;;;;5.05;2.47;;;;;;;9.69;100.00;95750.22;5070716;28;24446;-73
2023/03/19 08:42:21;;;;;;;5.68;2.30;;;;;;;9.83;100.00;95754.56;5069723;28;24431;-73
2023/03/19 08:44:48;;;;;;;4.75;2.75;;;;;;;10.14;100.00;95751.75;5070688;28;24801;-73
2023/03/19 08:47:15;;;;;;;5.07;2.38;;;;;;;10.37;100.00;95747.78;5064576;28;24439;-73
2023/03/19 08:49:42;;;;;;;4.18;2.38;;;;;;;10.73;100.00;95745.56;5074679;28;25006;-74
2023/03/19 08:52:08;;;;;;;4.78;2.33;;;;;;;10.98;100.00;95753.44;5068483;28;24435;-74
2023/03/19 08:54:35;;;;;;;7.68;2.35;;;;;;;11.34;100.00;95746.75;5067065;28;24442;-73
2023/03/19 08:57:02;;;;;;;3.92;2.40;;;;;;;11.38;100.00;95758.59;5065978;28;24450;-74
2023/03/19 08:59:30;;;;;;;5.30;2.20;;;;;;;11.61;100.00;95754.50;5069621;28;24484;-75
2023/03/19 09:01:57;;;;;;;3.70;2.03;;;;;;;11.62;100.00;95751.78;5071427;28;20068;-73
2023/03/19 09:04:23;;;;;;;;;;;;;;;11.80;100.00;95752.31;5068906;28;20059;-73
2023/03/19 09:06:50;;;;;;;;;;;;;;;11.77;100.00;95749.91;5070570;28;20406;-73
2023/03/19 09:09:16;;;;;;;;;;;;;;;11.72;100.00;95753.78;5070447;28;19924;-73
2023/03/19 09:11:43;;;;;;;;;;;;;;;11.58;100.00;95752.09;5070772;28;19931;-73
2023/03/19 09:14:10;;;;;;;;;;;;;;;11.59;100.00;95751.97;5070636;28;19946;-73
2023/03/19 09:16:38;;;;;;;;;;;;;;;11.72;100.00;95764.16;5070499;28;20286;-73
2023/03/19 09:19:04;;;;;;;;;;;;;;;11.92;100.00;95757.63;5070662;28;19931;-73
2023/03/19 09:21:30;;;;;;;;;;;;;;;12.20;100.00;95767.78;5069549;28;20306;-73
2023/03/19 09:23:57;;;;;;;;;;;;;;;12.35;99.83;95764.13;5062253;28;19921;-73
2023/03/19 09:26:23;;;;;;;;;;;;;;;12.20;99.61;95764.34;5067495;28;19927;-73
2023/03/19 09:28:50;;;;;;;;;;;;;;;12.03;100.00;95766.34;5070372;28;20321;-73
2023/03/19 09:31:16;;;;;;;;;;;;;;;12.07;100.00;95759.16;5067343;28;19924;-74
2023/03/19 09:33:44;;;;;;;;;;;;;;;12.25;100.00;95754.47;5070141;28;19931;-74
2023/03/19 09:36:10;;;;;;;;;;;;;;;12.24;100.00;95753.66;5071368;28;19924;-74
2023/03/19 09:38:38;;;;;;;;;;;;;;;12.30;100.00;95754.97;5071110;28;20407;-74
2023/03/19 09:41:10;;;;;;;;;;;;;;;12.38;100.00;95749.25;5068930;28;20043;-75
2023/03/19 09:43:51;;;;;;;;;;;;;;;12.57;96.95;95749.63;5071875;28;19921;-73
2023/03/19 09:46:19;;;;;;;;;;;;;;;12.70;93.62;95744.38;5070844;28;19920;-74
2023/03/19 09:48:51;;;;;;;;;;;;;;;13.14;91.54;95737.72;5071500;28;19920;-74
2023/03/19 09:51:21;;;;;;;;;;;;;;;13.49;89.68;95729.91;5077414;28;19934;-74
2023/03/19 09:53:49;;;;;;;;;;;;;;;13.68;86.95;95725.00;5061026;28;19932;-74
2023/03/19 09:56:18;;;;;;;;;;;;;;;13.80;83.73;95734.47;5068757;28;19920;-73
2023/03/19 09:58:46;;;;;;;;;;;;;;;14.02;83.32;95727.63;5069639;28;21234;-73
2023/03/19 10:01:20;;;;;;;;;;;;;;;14.54;81.56;95728.81;5071100;28;19924;-73
2023/03/19 10:03:56;;;;;;;;;;;;;;;14.65;79.22;95726.19;5065287;28;19933;-74
2023/03/19 10:06:26;;;;;;;;;;;;;;;14.66;80.87;95727.00;5066739;28;19924;-74
2023/03/19 10:08:59;;;;;;;;;;;;;;;14.50;73.99;95730.00;5071159;28;20389;-73
2023/03/19 10:11:33;;;;;;;;;;;;;;;14.35;73.69;95741.56;5070606;28;20026;-73
2023/03/19 10:14:07;;;;;;;;;;;;;;;14.63;73.90;95730.66;5067735;28;19935;-73
2023/03/19 10:16:35;;;;;;;;;;;;;;;14.93;69.76;95729.97;5070771;28;19924;-73
2023/03/19 10:19:04;;;;;;;;;;;;;;;15.06;71.26;95729.84;5068440;28;20365;-73
2023/03/19 10:21:33;;;;;;;;;;;;;;;15.30;68.79;95720.94;5071386;28;20007;-72
2023/03/19 10:24:01;;;;;;;;;;;;;;;14.96;69.91;95723.69;5068852;28;19978;-73
2023/03/19 10:26:30;;;;;;;;;;;;;;;15.00;70.40;95722.50;5070017;28;19928;-75
2023/03/19 10:28:59;;;;;;;;;;;;;;;15.07;68.51;95726.25;5069937;28;20409;-73
2023/03/19 10:31:27;;;;;;;;;;;;;;;15.03;69.06;95717.03;5061426;28;20295;-72
2023/03/19 10:33:58;;;;;;;;;;;;;;;15.04;68.33;95723.91;5070539;28;19924;-73
2023/03/19 10:36:27;;;;;;;;;;;;;;;14.96;71.69;95721.09;5070063;28;20303;-73
2023/03/19 10:38:53;;;;;;;;;;;;;;;14.69;73.48;95721.53;5070887;28;19932;-73
2023/03/19 10:41:26;;;;;;;;;;;;;;;14.79;72.07;95724.22;5071510;28;20298;-74
2023/03/19 10:43:54;;;;;;;;;;;;;;;15.17;70.44;95721.97;5074025;28;19931;-73
2023/03/19 10:46:21;;;;;;;;;;;;;;;15.34;67.31;95711.91;5074332;28;19924;-73
2023/03/19 10:48:47;;;;;;;;;;;;;;;15.26;65.81;95715.16;5074716;28;19971;-73
2023/03/19 10:51:15;;;;;;;;;;;;;;;14.90;64.71;95717.19;5074896;28;19935;-73
2023/03/19 10:53:43;;;;;;;;;;;;;;;14.61;67.95;95705.66;5074783;28;19924;-73
2023/03/19 10:56:17;;;;;;;;;;;;;;;14.87;68.51;95700.97;5074758;28;19928;-73
2023/03/19 10:58:55;;;;;;;;;;;;;;;15.04;69.38;95708.25;5074921;28;19929;-73
2023/03/19 11:01:21;;;;;;;;;;;;;;;15.15;66.53;95699.56;5074367;28;19956;-73
2023/03/19 11:03:50;;;;;;;;;;;;;;;14.97;68.51;95701.88;5071904;28;19924;-73
2023/03/19 11:06:18;;;;;;;;;;;;;;;14.73;67.05;95708.13;5074533;28;19928;-72
2023/03/19 11:08:52;;;;;;;;;;;;;;;14.58;68.47;95709.38;5074218;28;19932;-73
2023/03/19 11:11:26;;;;;;;;;;;;;;;14.38;69.70;95703.06;5074334;28;19928;-74
2023/03/19 11:13:52;;;;;;;;;;;;;;;14.46;69.82;95702.47;5073803;28;20393;-73
2023/03/19 11:16:19;;;;;;;;;;;;;;;14.49;69.77;95707.44;5071488;28;19986;-74
2023/03/19 11:18:48;;;;;;;;;;;;;;;14.56;68.72;95705.22;5074446;28;19951;-72
2023/03/19 11:21:22;;;;;;;;;;;;;;;14.60;74.06;95707.44;5074224;28;20046;-73
2023/03/19 11:23:52;;;;;;;;;;;;;;;14.32;77.85;95711.41;5074245;28;19925;-73
2023/03/19 11:26:20;;;;;;;;;;;;;;;14.53;77.29;95708.88;5071986;28;19928;-73
2023/03/19 11:28:50;;;;;;;;;;;;;;;14.20;78.58;95707.97;5073802;28;19924;-73
2023/03/19 11:31:20;;;;;;;;;;;;;;;14.25;74.69;95707.63;5074072;28;19939;-74
2023/03/19 11:33:59;;;;;;;;;;;;;;;14.07;78.47;95702.06;5073519;28;19931;-74
2023/03/19 11:36:28;;;;;;;;;;;;;;;14.22;76.22;95706.06;5073962;28;19931;-73
2023/03/19 11:39:03;;;;;;;;;;;;;;;14.12;78.97;95699.09;5073760;28;19929;-73
2023/03/19 11:41:33;;;;;;;;;;;;;;;14.14;78.24;95699.81;5071265;28;19981;-73
2023/03/19 11:44:01;;;;;;;;;;;;;;;14.15;78.39;95697.06;5072798;28;19972;-73
2023/03/19 11:46:39;;;;;;;;;;;;;;;14.14;76.21;95703.25;5073838;28;19924;-73
2023/03/19 11:49:24;;;;;;;;;;;;;;;13.99;75.37;95691.41;5067547;28;19925;-73
2023/03/19 11:51:51;;;;;;;;;;;;;;;13.99;75.81;95694.03;5073899;28;19925;-72